Time;durP1;ratioP1;P1;durP2;ratioP2;P2;SDS_P1;SDS_P2;PMS_P1;PMS_P2;Temp;Humidity;BMP_temperature;BMP_pressure;BME280_temperature;BME280_humidity;BME280_pressure;Samples;Min_cycle;Max_cycle;Signal;HPM_P1;HPM_P2
2022/04/13 00:02:08;;;;;;;23.60;13.60;;;;;;;;;;5054183;28;20411;-58
2022/04/13 00:04:34;;;;;;;19.90;12.73;;;;;;;;;;5054290;28;20404;-54
2022/04/13 00:07:00;;;;;;;21.80;13.63;;;;;;;;;;5054391;28;20407;-54
2022/04/13 00:09:26;;;;;;;22.53;14.33;;;;;;;;;;5054267;28;20475;-50
2022/04/13 00:11:54;;;;;;;21.37;13.60;;;;;;;;;;5054333;28;20400;-62
2022/04/13 00:14:22;;;;;;;21.83;13.43;;;;;;;;;;5054598;28;20465;-54
2022/04/13 00:16:49;;;;;;;20.70;14.07;;;;;;;;;;5054378;28;20910;-55
2022/04/13 00:19:15;;;;;;;18.47;12.60;;;;;;;;;;5054006;28;20411;-56
2022/04/13 00:21:41;;;;;;;21.90;14.07;;;;;;;;;;5052744;28;20427;-52
2022/04/13 00:24:07;;;;;;;20.97;13.07;;;;;;;;;;5054089;28;20461;-56
2022/04/13 00:26:33;;;;;;;19.13;12.80;;;;;;;;;;5054013;28;20899;-59
2022/04/13 00:29:01;;;;;;;20.93;14.20;;;;;;;;;;5053958;28;20485;-55
2022/04/13 00:31:27;;;;;;;22.47;14.27;;;;;;;;;;5052638;28;20420;-54
2022/04/13 00:33:53;;;;;;;16.13;11.90;;;;;;;;;;5052527;28;20569;-51
2022/04/13 00:36:19;;;;;;;19.57;12.67;;;;;;;;;;5053967;28;20907;-55
2022/04/13 00:38:45;;;;;;;22.63;13.53;;;;;;;;;;5052601;28;20477;-56
2022/04/13 00:41:12;;;;;;;20.83;13.27;;;;;;;;;;5053669;28;20523;-55
2022/04/13 00:43:38;;;;;;;19.63;12.70;;;;;;;;;;5053874;28;20932;-56
2022/04/13 00:46:05;;;;;;;18.73;12.83;;;;;;;;;;5053614;28;20426;-53
2022/04/13 00:48:32;;;;;;;26.30;14.30;;;;;;;;;;5053561;28;20471;-57
2022/04/13 00:50:58;;;;;;;23.73;13.47;;;;;;;;;;5053627;28;20768;-60
2022/04/13 00:53:25;;;;;;;21.70;12.90;;;;;;;;;;5052104;28;20423;-52
2022/04/13 00:55:55;;;;;;;19.00;12.90;;;;;;;;;;5053878;28;20448;-53
2022/04/13 00:58:22;;;;;;;22.17;14.00;;;;;;;;;;5051795;28;20423;-55
2022/04/13 01:00:49;;;;;;;20.67;12.93;;;;;;;;;;5053490;28;20407;-49
2022/04/13 01:03:23;;;;;;;22.20;13.03;;;;;;;;;;5053280;28;20418;-51
2022/04/13 01:05:49;;;;;;;21.60;13.70;;;;;;;;;;5052532;28;20477;-53
2022/04/13 01:08:17;;;;;;;26.93;14.80;;;;;;;;;;5053250;28;20558;-55
2022/04/13 01:10:43;;;;;;;29.27;14.20;;;;;;;;;;5053227;28;20446;-56
2022/04/13 01:13:10;;;;;;;20.73;13.90;;;;;;;;;;5053017;28;20447;-51
2022/04/13 01:15:36;;;;;;;18.50;12.80;;;;;;;;;;5053134;28;20418;-57
2022/04/13 01:18:03;;;;;;;22.57;13.37;;;;;;;;;;5053111;28;20460;-56
2022/04/13 01:20:29;;;;;;;27.30;13.70;;;;;;;;;;5052924;28;20812;-62
2022/04/13 01:22:55;;;;;;;22.10;13.73;;;;;;;;;;5051699;28;20424;-52
2022/04/13 01:25:21;;;;;;;21.43;13.80;;;;;;;;;;5052014;28;20408;-52
2022/04/13 01:27:48;;;;;;;22.90;12.83;;;;;;;;;;5053219;28;21009;-56
2022/04/13 01:30:14;;;;;;;24.23;13.10;;;;;;;;;;5053026;28;20415;-54
2022/04/13 01:32:40;;;;;;;21.93;12.63;;;;;;;;;;5052997;28;20438;-54
2022/04/13 01:35:07;;;;;;;20.47;12.93;;;;;;;;;;5052874;28;20446;-53
2022/04/13 01:37:34;;;;;;;20.23;12.70;;;;;;;;;;5052743;28;20432;-57
2022/04/13 01:40:00;;;;;;;20.30;13.30;;;;;;;;;;5052843;28;20419;-56
2022/04/13 01:42:29;;;;;;;22.70;12.80;;;;;;;;;;5052738;28;20787;-58
2022/04/13 01:44:55;;;;;;;20.90;13.10;;;;;;;;;;5052716;28;20411;-54
2022/04/13 01:47:21;;;;;;;23.60;13.00;;;;;;;;;;5052645;28;20494;-53
2022/04/13 01:49:47;;;;;;;21.77;14.17;;;;;;;;;;5051538;28;20511;-51
2022/04/13 01:52:13;;;;;;;20.07;13.20;;;;;;;;;;5051366;28;20439;-51
2022/04/13 01:54:39;;;;;;;17.90;11.93;;;;;;;;;;5052581;28;20422;-56
2022/04/13 01:57:05;;;;;;;18.80;13.23;;;;;;;;;;5052631;28;20411;-55
2022/04/13 01:59:31;;;;;;;20.80;13.87;;;;;;;;;;5052529;28;21038;-62
2022/04/13 02:01:57;;;;;;;21.10;13.17;;;;;;;;;;5052529;28;20446;-57
2022/04/13 02:04:25;;;;;;;21.40;13.57;;;;;;;;;;5051140;28;20423;-57
2022/04/13 02:06:51;;;;;;;18.80;12.53;;;;;;;;;;5052680;28;20771;-59
2022/04/13 02:09:17;;;;;;;19.47;12.53;;;;;;;;;;5052809;28;20497;-53
2022/04/13 02:11:47;;;;;;;21.57;13.47;;;;;;;;;;5056487;28;20810;-58
2022/04/13 02:14:13;;;;;;;24.10;13.30;;;;;;;;;;5056582;28;20416;-55
2022/04/13 02:16:39;;;;;;;22.13;13.93;;;;;;;;;;5056542;28;20430;-65
2022/04/13 02:19:11;;;;;;;21.90;12.20;;;;;;;;;;5056594;28;20418;-64
2022/04/13 02:21:37;;;;;;;23.13;14.43;;;;;;;;;;5056261;28;20943;-58
2022/04/13 02:24:04;;;;;;;20.00;12.80;;;;;;;;;;5056375;28;20457;-63
2022/04/13 02:26:30;;;;;;;24.47;13.20;;;;;;;;;;5056418;28;20413;-63
2022/04/13 02:28:56;;;;;;;21.37;12.70;;;;;;;;;;5056166;28;20569;-66
2022/04/13 02:31:22;;;;;;;18.10;12.10;;;;;;;;;;5056272;28;20400;-57
2022/04/13 02:33:51;;;;;;;17.23;12.50;;;;;;;;;;5056346;28;20979;-66
2022/04/13 02:36:17;;;;;;;21.03;12.27;;;;;;;;;;5056527;28;20458;-64
2022/04/13 02:38:43;;;;;;;24.20;14.10;;;;;;;;;;5056112;28;20407;-63
2022/04/13 02:41:09;;;;;;;24.40;13.73;;;;;;;;;;5056144;28;20403;-59
2022/04/13 02:43:35;;;;;;;24.40;13.90;;;;;;;;;;5056087;28;20406;-67
2022/04/13 02:46:01;;;;;;;21.17;12.23;;;;;;;;;;5055989;28;20486;-63
2022/04/13 02:48:27;;;;;;;19.00;12.83;;;;;;;;;;5055713;28;20512;-55
2022/04/13 02:50:53;;;;;;;20.30;12.53;;;;;;;;;;5056003;28;20407;-52
2022/04/13 02:53:19;;;;;;;17.40;12.17;;;;;;;;;;5055887;28;20399;-57
2022/04/13 02:55:45;;;;;;;22.47;13.30;;;;;;;;;;5054681;28;20792;-56
2022/04/13 02:58:11;;;;;;;22.20;13.10;;;;;;;;;;5055707;28;20955;-58
2022/04/13 03:00:40;;;;;;;24.87;13.10;;;;;;;;;;5055752;28;20538;-68
2022/04/13 03:03:06;;;;;;;17.43;12.20;;;;;;;;;;5055564;28;20410;-56
2022/04/13 03:05:33;;;;;;;19.10;12.07;;;;;;;;;;5054125;28;20428;-60
2022/04/13 03:07:59;;;;;;;19.23;13.00;;;;;;;;;;5055570;28;20462;-59
2022/04/13 03:10:25;;;;;;;19.00;11.73;;;;;;;;;;5055432;28;20412;-60
2022/04/13 03:12:51;;;;;;;17.87;12.40;;;;;;;;;;5055738;28;20406;-52
2022/04/13 03:15:22;;;;;;;18.70;13.07;;;;;;;;;;5055678;28;20407;-60
2022/04/13 03:17:48;;;;;;;25.23;12.90;;;;;;;;;;5053011;28;20410;-60
2022/04/13 03:20:14;;;;;;;18.73;12.17;;;;;;;;;;5053658;28;20502;-61
2022/04/13 03:22:40;;;;;;;18.40;12.50;;;;;;;;;;5055210;28;20473;-56
2022/04/13 03:25:06;;;;;;;18.13;12.90;;;;;;;;;;5055217;28;20406;-60
2022/04/13 03:27:37;;;;;;;20.97;12.43;;;;;;;;;;5054892;28;20976;-55
2022/04/13 03:30:04;;;;;;;18.23;12.60;;;;;;;;;;5053894;28;20432;-67
2022/04/13 03:32:36;;;;;;;22.63;12.47;;;;;;;;;;5055094;28;20919;-63
2022/04/13 03:35:02;;;;;;;20.70;12.53;;;;;;;;;;5055112;28;20419;-55
2022/04/13 03:37:31;;;;;;;19.50;12.87;;;;;;;;;;5053625;28;20951;-63
2022/04/13 03:39:56;;;;;;;20.43;12.60;;;;;;;;;;5054927;28;20419;-65
2022/04/13 03:42:22;;;;;;;19.03;12.67;;;;;;;;;;5054862;28;20408;-62
2022/04/13 03:44:49;;;;;;;20.50;12.90;;;;;;;;;;5054956;28;20422;-53
2022/04/13 03:47:15;;;;;;;20.77;13.00;;;;;;;;;;5054804;28;20912;-68
2022/04/13 03:49:41;;;;;;;18.23;12.20;;;;;;;;;;5054735;28;20602;-53
2022/04/13 03:52:07;;;;;;;19.80;12.17;;;;;;;;;;5054674;28;20900;-56
2022/04/13 03:54:33;;;;;;;17.87;11.30;;;;;;;;;;5054501;28;20415;-61
2022/04/13 03:56:59;;;;;;;17.40;12.63;;;;;;;;;;5054491;28;20416;-51
2022/04/13 03:59:26;;;;;;;20.33;12.80;;;;;;;;;;5054419;28;20404;-52
2022/04/13 04:01:52;;;;;;;17.03;11.40;;;;;;;;;;5054481;28;20451;-62
2022/04/13 04:04:18;;;;;;;21.30;12.90;;;;;;;;;;5054560;28;20408;-53
2022/04/13 04:06:47;;;;;;;21.10;12.70;;;;;;;;;;5054346;28;20466;-59
2022/04/13 04:09:13;;;;;;;18.10;12.23;;;;;;;;;;5054155;28;20490;-53
2022/04/13 04:11:39;;;;;;;15.40;11.60;;;;;;;;;;5054410;28;20408;-53
2022/04/13 04:14:05;;;;;;;21.10;13.83;;;;;;;;;;5054325;28;20403;-55
2022/04/13 04:16:31;;;;;;;16.90;11.93;;;;;;;;;;5054171;28;20461;-51
2022/04/13 04:18:57;;;;;;;22.20;13.20;;;;;;;;;;5052963;28;20411;-52
2022/04/13 04:21:23;;;;;;;16.27;11.87;;;;;;;;;;5053218;28;20455;-50
2022/04/13 04:23:49;;;;;;;17.10;12.23;;;;;;;;;;5053236;28;20407;-52
2022/04/13 04:26:15;;;;;;;18.63;12.23;;;;;;;;;;5053100;28;20411;-51
2022/04/13 04:28:42;;;;;;;21.23;12.60;;;;;;;;;;5052689;28;20577;-50
2022/04/13 04:31:08;;;;;;;23.40;13.67;;;;;;;;;;5053147;28;20435;-51
2022/04/13 04:33:34;;;;;;;28.97;13.10;;;;;;;;;;5051961;28;20887;-51
2022/04/13 04:36:00;;;;;;;21.43;13.20;;;;;;;;;;5052450;28;20504;-51
2022/04/13 04:38:30;;;;;;;25.67;13.27;;;;;;;;;;5051439;28;20462;-53
2022/04/13 04:40:56;;;;;;;30.73;13.23;;;;;;;;;;5052652;28;20412;-52
2022/04/13 04:43:22;;;;;;;22.20;13.40;;;;;;;;;;5052524;28;20438;-51
2022/04/13 04:45:48;;;;;;;20.07;13.20;;;;;;;;;;5052618;28;20913;-55
2022/04/13 04:48:14;;;;;;;24.77;13.03;;;;;;;;;;5052353;28;20467;-53
2022/04/13 04:50:43;;;;;;;21.73;12.80;;;;;;;;;;5052621;28;20814;-52
2022/04/13 04:53:09;;;;;;;22.90;13.07;;;;;;;;;;5052600;28;20420;-51
2022/04/13 04:55:35;;;;;;;20.17;12.60;;;;;;;;;;5052557;28;20403;-52
2022/04/13 04:58:03;;;;;;;18.70;12.43;;;;;;;;;;5052520;28;20423;-55
2022/04/13 05:00:35;;;;;;;20.10;11.93;;;;;;;;;;5053397;28;20454;-55
2022/04/13 05:03:01;;;;;;;16.77;11.37;;;;;;;;;;5053478;28;20442;-58
2022/04/13 05:05:27;;;;;;;20.80;12.10;;;;;;;;;;5053156;28;20423;-53
2022/04/13 05:07:53;;;;;;;26.13;12.80;;;;;;;;;;5051724;28;20459;-55
2022/04/13 05:10:19;;;;;;;23.77;13.30;;;;;;;;;;5053110;28;20950;-56
2022/04/13 05:12:46;;;;;;;21.57;11.17;;;;;;;;;;5052947;28;20418;-51
2022/04/13 05:15:12;;;;;;;18.47;12.77;;;;;;;;;;5051657;28;20522;-59
2022/04/13 05:17:39;;;;;;;19.07;12.27;;;;;;;;;;5052998;28;20421;-51
2022/04/13 05:20:06;;;;;;;17.00;12.83;;;;;;;;;;5052716;28;20464;-52
2022/04/13 05:22:32;;;;;;;20.20;12.13;;;;;;;;;;5053093;28;20415;-52
2022/04/13 05:25:02;;;;;;;20.93;12.37;;;;;;;;;;5053045;28;20469;-52
2022/04/13 05:27:28;;;;;;;19.60;11.83;;;;;;;;;;5052923;28;20453;-53
2022/04/13 05:29:54;;;;;;;19.63;11.73;;;;;;;;;;5052675;28;20923;-55
2022/04/13 05:32:20;;;;;;;21.10;12.77;;;;;;;;;;5051593;28;20431;-51
2022/04/13 05:34:46;;;;;;;19.20;11.70;;;;;;;;;;5052746;28;20912;-53
2022/04/13 05:37:12;;;;;;;21.07;11.70;;;;;;;;;;5052675;28;20413;-51
2022/04/13 05:39:38;;;;;;;14.87;12.20;;;;;;;;;;5052804;28;20462;-52
2022/04/13 05:42:04;;;;;;;30.10;12.73;;;;;;;;;;5052929;28;20404;-51
2022/04/13 05:44:30;;;;;;;21.60;12.67;;;;;;;;;;5052695;28;20553;-54
2022/04/13 05:46:56;;;;;;;19.73;12.60;;;;;;;;;;5052766;28;20454;-53
2022/04/13 05:49:22;;;;;;;21.67;12.50;;;;;;;;;;5052492;28;20561;-52
2022/04/13 05:51:48;;;;;;;20.03;12.40;;;;;;;;;;5052840;28;20400;-52
2022/04/13 05:54:16;;;;;;;21.63;12.30;;;;;;;;;;5052496;28;20408;-52
2022/04/13 05:56:42;;;;;;;17.40;12.03;;;;;;;;;;5052668;28;20400;-53
2022/04/13 05:59:08;;;;;;;16.23;11.70;;;;;;;;;;5052371;28;20413;-53
2022/04/13 06:01:34;;;;;;;18.40;12.40;;;;;;;;;;5052522;28;20406;-51
2022/04/13 06:04:00;;;;;;;22.80;12.23;;;;;;;;;;5052352;28;20507;-52
2022/04/13 06:06:28;;;;;;;24.90;12.80;;;;;;;;;;5052392;28;20486;-52
2022/04/13 06:08:54;;;;;;;16.23;11.40;;;;;;;;;;5052308;28;20467;-52
2022/04/13 06:11:20;;;;;;;16.60;11.57;;;;;;;;;;5052543;28;20403;-51
2022/04/13 06:13:46;;;;;;;18.27;12.23;;;;;;;;;;5051161;28;20428;-51
2022/04/13 06:16:12;;;;;;;28.00;13.07;;;;;;;;;;5052276;28;20498;-53
2022/04/13 06:18:38;;;;;;;20.13;11.30;;;;;;;;;;5051122;28;20753;-52
2022/04/13 06:21:04;;;;;;;19.20;11.90;;;;;;;;;;5050728;28;21039;-53
2022/04/13 06:23:30;;;;;;;18.70;11.30;;;;;;;;;;5052339;28;20435;-62
2022/04/13 06:25:56;;;;;;;26.83;11.50;;;;;;;;;;5052198;28;20407;-53
2022/04/13 06:28:22;;;;;;;16.90;12.20;;;;;;;;;;5052125;28;20213;-56
2022/04/13 06:30:48;;;;;;;19.73;12.43;;;;;;;;;;5052190;28;20966;-61
2022/04/13 06:33:14;;;;;;;16.50;12.03;;;;;;;;;;5052074;28;20416;-56
2022/04/13 06:35:40;;;;;;;27.00;15.33;;;;;;;;;;5052105;28;20577;-59
2022/04/13 06:38:06;;;;;;;17.57;13.00;;;;;;;;;;5052154;28;20769;-55
2022/04/13 06:40:32;;;;;;;18.10;11.57;;;;;;;;;;5050677;28;20431;-53
2022/04/13 06:42:58;;;;;;;17.90;12.00;;;;;;;;;;5050705;28;20443;-62
2022/04/13 06:45:24;;;;;;;28.40;17.33;;;;;;;;;;5051974;28;20473;-61
2022/04/13 06:47:50;;;;;;;17.27;10.70;;;;;;;;;;5052135;28;20415;-65
2022/04/13 06:50:16;;;;;;;14.07;9.60;;;;;;;;;;5053052;28;20514;-65
2022/04/13 06:52:42;;;;;;;12.20;9.70;;;;;;;;;;5072987;28;20406;-65
2022/04/13 06:55:09;;;;;;;14.53;9.53;;;;;;;;;;5078875;28;20937;-66
2022/04/13 06:57:37;;;;;;;10.70;8.47;;;;;;;;;;5088789;28;20410;-67
2022/04/13 07:00:04;;;;;;;19.47;8.67;;;;;;;;;;5073527;28;20442;-62
2022/04/13 07:02:30;;;;;;;12.10;8.80;;;;;;;;;;5074949;28;20411;-65
2022/04/13 07:04:56;;;;;;;16.97;9.03;;;;;;;;;;5074786;28;20760;-66
2022/04/13 07:07:22;;;;;;;20.23;10.50;;;;;;;;;;5077921;28;20420;-59
2022/04/13 07:09:48;;;;;;;16.23;9.30;;;;;;;;;;5094885;28;20499;-62
2022/04/13 07:12:14;;;;;;;14.47;9.30;;;;;;;;;;5094937;28;20398;-64
2022/04/13 07:14:41;;;;;;;13.57;9.00;;;;;;;;;;5094872;28;20410;-62
2022/04/13 07:17:09;;;;;;;11.93;8.67;;;;;;;;;;5092485;28;20975;-60
2022/04/13 07:19:35;;;;;;;16.17;9.47;;;;;;;;;;5064767;28;20459;-60
2022/04/13 07:22:01;;;;;;;13.20;9.83;;;;;;;;;;5060959;28;20414;-64
2022/04/13 07:24:27;;;;;;;11.80;9.53;;;;;;;;;;5077700;28;20406;-66
2022/04/13 07:26:54;;;;;;;13.77;8.80;;;;;;;;;;5082800;28;20833;-61
2022/04/13 07:29:20;;;;;;;11.57;8.10;;;;;;;;;;5056489;28;20471;-64
2022/04/13 07:31:46;;;;;;;13.30;9.33;;;;;;;;;;5054075;28;20412;-62
2022/04/13 07:34:12;;;;;;;13.00;9.07;;;;;;;;;;5055503;28;20465;-63
2022/04/13 07:36:38;;;;;;;10.90;9.33;;;;;;;;;;5074353;28;20422;-62
2022/04/13 07:39:04;;;;;;;11.53;9.10;;;;;;;;;;5074201;28;20411;-60
2022/04/13 07:41:30;;;;;;;11.10;9.00;;;;;;;;;;5074078;28;20445;-55
2022/04/13 07:43:57;;;;;;;14.03;8.90;;;;;;;;;;5073988;28;20411;-54
2022/04/13 07:46:27;;;;;;;15.20;9.83;;;;;;;;;;5073859;28;20395;-61
2022/04/13 07:48:53;;;;;;;10.20;8.77;;;;;;;;;;5073877;28;20462;-61
2022/04/13 07:51:19;;;;;;;12.63;9.23;;;;;;;;;;5072083;28;20405;-57
2022/04/13 07:53:48;;;;;;;12.40;9.00;;;;;;;;;;5053588;28;20745;-55
2022/04/13 07:56:14;;;;;;;11.77;9.47;;;;;;;;;;5052501;28;20415;-61
2022/04/13 07:58:40;;;;;;;11.30;8.90;;;;;;;;;;5060814;28;20418;-57
2022/04/13 08:01:06;;;;;;;16.67;9.00;;;;;;;;;;5094033;28;20808;-56
2022/04/13 08:03:33;;;;;;;12.77;9.87;;;;;;;;;;5093905;28;20773;-60
2022/04/13 08:05:59;;;;;;;12.80;8.60;;;;;;;;;;5094069;28;20402;-63
2022/04/13 08:08:25;;;;;;;11.97;8.80;;;;;;;;;;5092622;28;20515;-62
2022/04/13 08:10:51;;;;;;;15.00;9.10;;;;;;;;;;5093990;28;20408;-64
2022/04/13 08:13:17;;;;;;;23.53;9.17;;;;;;;;;;5093626;28;20493;-62
2022/04/13 08:15:43;;;;;;;19.60;8.10;;;;;;;;;;5093164;28;20405;-60
2022/04/13 08:18:09;;;;;;;11.90;9.00;;;;;;;;;;5092359;28;20500;-60
2022/04/13 08:20:35;;;;;;;13.30;8.30;;;;;;;;;;5093422;28;20549;-55
2022/04/13 08:23:00;;;;;;;11.43;7.80;;;;;;;;;;5093516;28;20848;-53
2022/04/13 08:25:30;;;;;;;14.20;10.03;;;;;;;;;;5090006;28;20472;-56
2022/04/13 08:27:56;;;;;;;13.37;7.77;;;;;;;;;;5073524;28;20822;-57
2022/04/13 08:30:25;;;;;;;9.03;7.30;;;;;;;;;;5073099;28;20414;-54
2022/04/13 08:32:52;;;;;;;12.13;7.40;;;;;;;;;;5073003;28;20443;-53
2022/04/13 08:35:18;;;;;;;9.33;7.10;;;;;;;;;;5073311;28;20453;-56
2022/04/13 08:37:44;;;;;;;15.70;8.70;;;;;;;;;;5072797;28;20660;-58
2022/04/13 08:40:12;;;;;;;10.60;7.93;;;;;;;;;;5071857;28;20429;-53
2022/04/13 08:42:56;;;;;;;10.93;7.23;;;;;;;;;;5071915;28;20460;-52
2022/04/13 08:45:26;;;;;;;9.87;7.17;;;;;;;;;;5072775;28;20407;-58
2022/04/13 08:47:56;;;;;;;14.83;7.33;;;;;;;;;;5072477;28;20460;-53
2022/04/13 08:50:27;;;;;;;12.50;7.17;;;;;;;;;;5072816;28;20419;-55
2022/04/13 08:52:54;;;;;;;7.40;6.67;;;;;;;;;;5072757;28;20457;-57
2022/04/13 08:55:21;;;;;;;10.60;7.23;;;;;;;;;;5073018;28;20422;-53
2022/04/13 08:57:49;;;;;;;10.40;6.50;;;;;;;;;;5072344;28;20411;-55
2022/04/13 09:00:16;;;;;;;13.07;7.00;;;;;;;;;;5089632;28;20837;-56
2022/04/13 09:02:48;;;;;;;11.03;5.90;;;;;;;;;;5092729;28;20413;-55
2022/04/13 09:05:19;;;;;;;10.53;6.23;;;;;;;;;;5092819;28;20398;-55
2022/04/13 09:08:05;;;;;;;7.60;6.60;;;;;;;;;;5092656;28;20402;-54
2022/04/13 09:10:31;;;;;;;8.63;6.90;;;;;;;;;;5092811;28;20405;-54
2022/04/13 09:13:01;;;;;;;7.77;6.70;;;;;;;;;;5070542;28;20513;-55
2022/04/13 09:15:27;;;;;;;9.77;6.90;;;;;;;;;;5052453;28;20761;-55
2022/04/13 09:17:54;;;;;;;15.40;6.43;;;;;;;;;;5052186;28;20419;-53
2022/04/13 09:20:20;;;;;;;17.73;6.80;;;;;;;;;;5051979;28;20892;-54
2022/04/13 09:22:47;;;;;;;6.37;5.67;;;;;;;;;;5052076;28;20419;-59
2022/04/13 09:25:13;;;;;;;10.07;6.47;;;;;;;;;;5052401;28;20431;-56
2022/04/13 09:27:42;;;;;;;16.60;7.10;;;;;;;;;;5070754;28;20768;-52
2022/04/13 09:30:09;;;;;;;7.90;6.30;;;;;;;;;;5072320;28;20410;-54
2022/04/13 09:32:36;;;;;;;13.23;6.70;;;;;;;;;;5072187;28;20926;-51
2022/04/13 09:35:03;;;;;;;8.13;6.60;;;;;;;;;;5072319;28;20411;-55
2022/04/13 09:37:29;;;;;;;20.90;7.97;;;;;;;;;;5072033;28;21059;-56
2022/04/13 09:39:56;;;;;;;13.40;6.10;;;;;;;;;;5072047;28;20407;-53
2022/04/13 09:42:26;;;;;;;8.63;5.83;;;;;;;;;;5071959;28;20421;-56
2022/04/13 09:44:58;;;;;;;7.70;5.80;;;;;;;;;;5071720;28;20509;-52
2022/04/13 09:47:29;;;;;;;6.90;5.80;;;;;;;;;;5072050;28;20415;-52
2022/04/13 09:49:56;;;;;;;10.50;5.60;;;;;;;;;;5071691;28;20906;-51
2022/04/13 09:52:41;;;;;;;15.70;5.43;;;;;;;;;;5071957;28;20438;-57
2022/04/13 09:55:08;;;;;;;10.23;6.00;;;;;;;;;;5071863;28;20437;-54
2022/04/13 09:57:35;;;;;;;7.17;5.70;;;;;;;;;;5071718;28;20736;-53
2022/04/13 10:00:01;;;;;;;5.83;5.20;;;;;;;;;;5087016;28;20422;-52
2022/04/13 10:02:35;;;;;;;7.00;5.60;;;;;;;;;;5092449;28;20398;-54
2022/04/13 10:05:01;;;;;;;7.17;5.57;;;;;;;;;;5091874;28;20408;-54
2022/04/13 10:07:30;;;;;;;14.70;5.60;;;;;;;;;;5092026;28;20507;-56
2022/04/13 10:09:56;;;;;;;11.10;5.23;;;;;;;;;;5091698;28;20473;-53
2022/04/13 10:12:22;;;;;;;8.00;5.50;;;;;;;;;;5091900;28;20402;-61
2022/04/13 10:14:48;;;;;;;9.57;5.77;;;;;;;;;;5092033;28;20420;-54
2022/04/13 10:17:20;;;;;;;9.40;5.37;;;;;;;;;;5091907;28;20820;-63
2022/04/13 10:19:54;;;;;;;6.37;4.70;;;;;;;;;;5091329;28;20453;-56
2022/04/13 10:22:20;;;;;;;5.70;5.20;;;;;;;;;;5091872;28;20496;-59
2022/04/13 10:24:46;;;;;;;8.73;5.60;;;;;;;;;;5091797;28;20430;-58
2022/04/13 10:27:20;;;;;;;7.23;5.63;;;;;;;;;;5075165;28;20420;-59
2022/04/13 10:29:47;;;;;;;5.93;5.13;;;;;;;;;;5071245;28;20518;-58
2022/04/13 10:32:13;;;;;;;6.90;5.37;;;;;;;;;;5075066;28;20448;-58
2022/04/13 10:34:40;;;;;;;6.90;5.20;;;;;;;;;;5075493;28;20398;-56
2022/04/13 10:37:06;;;;;;;6.80;4.97;;;;;;;;;;5075447;28;20402;-56
2022/04/13 10:39:33;;;;;;;7.20;5.23;;;;;;;;;;5075227;28;20398;-51
2022/04/13 10:41:59;;;;;;;7.00;5.37;;;;;;;;;;5075335;28;20793;-58
2022/04/13 10:44:30;;;;;;;8.63;5.17;;;;;;;;;;5075247;28;20533;-56
2022/04/13 10:46:58;;;;;;;6.40;5.33;;;;;;;;;;5075254;28;20405;-56
2022/04/13 10:49:27;;;;;;;8.97;5.20;;;;;;;;;;5075271;28;20519;-57
2022/04/13 10:51:54;;;;;;;6.57;4.80;;;;;;;;;;5074959;28;20402;-56
2022/04/13 10:54:21;;;;;;;7.90;5.30;;;;;;;;;;5074911;28;20407;-56
2022/04/13 10:56:56;;;;;;;11.20;6.50;;;;;;;;;;5075192;28;20403;-57
2022/04/13 10:59:44;;;;;;;7.57;5.23;;;;;;;;;;5084768;28;20935;-54
2022/04/13 11:02:28;;;;;;;13.80;5.37;;;;;;;;;;5095231;28;20437;-58
2022/04/13 11:04:55;;;;;;;5.00;4.50;;;;;;;;;;5095141;28;20405;-54
2022/04/13 11:07:23;;;;;;;7.57;4.67;;;;;;;;;;5094966;28;20393;-61
2022/04/13 11:09:51;;;;;;;9.60;5.50;;;;;;;;;;5095005;28;20941;-57
2022/04/13 11:12:18;;;;;;;4.80;4.40;;;;;;;;;;5095164;28;20970;-56
2022/04/13 11:14:51;;;;;;;5.00;4.60;;;;;;;;;;5094695;28;20452;-52
2022/04/13 11:17:17;;;;;;;6.20;4.70;;;;;;;;;;5094985;28;20409;-59
2022/04/13 11:19:43;;;;;;;7.43;4.87;;;;;;;;;;5094150;28;20488;-57
2022/04/13 11:22:14;;;;;;;6.70;5.20;;;;;;;;;;5094918;28;20758;-56
2022/04/13 11:24:43;;;;;;;7.80;5.27;;;;;;;;;;5094363;28;20501;-55
2022/04/13 11:27:10;;;;;;;7.50;6.00;;;;;;;;;;5062321;28;20502;-57
2022/04/13 11:29:37;;;;;;;14.47;6.00;;;;;;;;;;5054136;28;20463;-53
2022/04/13 11:32:04;;;;;;;10.97;6.30;;;;;;;;;;5054192;28;20403;-56
2022/04/13 11:34:39;;;;;;;12.77;8.40;;;;;;;;;;5054234;28;21018;-57
2022/04/13 11:37:16;;;;;;;12.50;6.37;;;;;;;;;;5054313;28;20411;-52
2022/04/13 11:39:45;;;;;;;9.03;5.93;;;;;;;;;;5053782;28;20407;-56
2022/04/13 11:42:34;;;;;;;7.50;6.80;;;;;;;;;;5052736;28;20427;-59
2022/04/13 11:45:00;;;;;;;7.63;6.93;;;;;;;;;;5046226;28;20482;-55
2022/04/13 11:47:37;;;;;;;7.73;6.97;;;;;;;;;;5054118;28;20481;-60
2022/04/13 11:50:05;;;;;;;11.23;7.10;;;;;;;;;;5052539;28;20478;-55
2022/04/13 11:52:50;;;;;;;11.40;6.70;;;;;;;;;;5053890;28;20550;-56
2022/04/13 11:55:16;;;;;;;7.57;6.87;;;;;;;;;;5058842;28;20491;-59
2022/04/13 11:58:02;;;;;;;7.80;7.00;;;;;;;;;;5073770;28;20399;-55
2022/04/13 12:00:44;;;;;;;9.97;6.50;;;;;;;;;;5091455;28;20422;-62
2022/04/13 12:03:11;;;;;;;7.03;6.03;;;;;;;;;;5093967;28;20409;-56
2022/04/13 12:05:47;;;;;;;6.70;6.07;;;;;;;;;;5092290;28;20819;-57
2022/04/13 12:08:32;;;;;;;14.40;6.63;;;;;;;;;;5092330;28;20968;-57
2022/04/13 12:11:17;;;;;;;9.47;6.60;;;;;;;;;;5092200;28;20426;-57
2022/04/13 12:13:53;;;;;;;9.00;6.67;;;;;;;;;;5093543;28;20402;-55
2022/04/13 12:16:29;;;;;;;7.87;6.93;;;;;;;;;;5093853;28;20435;-55
2022/04/13 12:18:59;;;;;;;11.13;7.00;;;;;;;;;;5093267;28;20440;-54
2022/04/13 12:21:26;;;;;;;10.90;7.37;;;;;;;;;;5093060;28;20465;-55
2022/04/13 12:23:53;;;;;;;8.50;6.90;;;;;;;;;;5093289;28;20890;-55
2022/04/13 12:26:29;;;;;;;8.80;6.60;;;;;;;;;;5084567;28;20419;-57
2022/04/13 12:28:56;;;;;;;8.67;6.23;;;;;;;;;;5072941;28;20880;-52
2022/04/13 12:31:22;;;;;;;7.60;5.70;;;;;;;;;;5073232;28;20515;-54
2022/04/13 12:33:48;;;;;;;15.00;5.60;;;;;;;;;;5073279;28;20454;-54
2022/04/13 12:36:17;;;;;;;11.03;5.33;;;;;;;;;;5073104;28;20172;-53
2022/04/13 12:38:46;;;;;;;6.63;5.53;;;;;;;;;;5073225;28;20504;-56
2022/04/13 12:41:13;;;;;;;10.60;6.17;;;;;;;;;;5071762;28;20922;-55
2022/04/13 12:44:03;;;;;;;6.97;5.50;;;;;;;;;;5071295;28;20426;-54
2022/04/13 12:46:30;;;;;;;8.53;5.23;;;;;;;;;;5072869;28;20486;-56
2022/04/13 12:49:00;;;;;;;6.70;5.93;;;;;;;;;;5069357;28;20835;-56
2022/04/13 12:51:31;;;;;;;5.33;4.93;;;;;;;;;;5072785;28;20406;-56
2022/04/13 12:53:58;;;;;;;8.40;6.00;;;;;;;;;;5072228;28;20414;-57
2022/04/13 12:56:25;;;;;;;7.93;7.13;;;;;;;;;;5072625;28;20402;-57
2022/04/13 12:58:52;;;;;;;7.13;6.33;;;;;;;;;;5078041;28;20409;-56
2022/04/13 13:01:28;;;;;;;16.87;5.57;;;;;;;;;;5093051;28;20405;-56
2022/04/13 13:03:55;;;;;;;9.47;6.47;;;;;;;;;;5092771;28;20412;-57
2022/04/13 13:06:22;;;;;;;7.20;6.30;;;;;;;;;;5092939;28;20405;-57
2022/04/13 13:08:55;;;;;;;9.43;7.47;;;;;;;;;;5092592;28;20469;-55
2022/04/13 13:11:24;;;;;;;10.50;7.80;;;;;;;;;;5092847;28;20405;-58
2022/04/13 13:13:50;;;;;;;7.10;6.40;;;;;;;;;;5092744;28;20401;-53
2022/04/13 13:16:30;;;;;;;11.27;6.23;;;;;;;;;;5092465;28;20409;-55
2022/04/13 13:19:14;;;;;;;9.10;6.67;;;;;;;;;;5092310;28;20408;-55
2022/04/13 13:21:59;;;;;;;16.13;6.97;;;;;;;;;;5092476;28;20421;-54
2022/04/13 13:24:26;;;;;;;6.70;5.87;;;;;;;;;;5092358;28;20484;-55
2022/04/13 13:26:52;;;;;;;13.33;6.23;;;;;;;;;;5078543;28;20441;-58
2022/04/13 13:29:18;;;;;;;7.20;6.30;;;;;;;;;;5072153;28;20465;-55
2022/04/13 13:31:44;;;;;;;6.93;6.13;;;;;;;;;;5071848;28;20857;-57
2022/04/13 13:34:10;;;;;;;6.83;5.60;;;;;;;;;;5071864;28;20176;-55
2022/04/13 13:36:39;;;;;;;8.93;6.80;;;;;;;;;;5071880;28;20265;-55
2022/04/13 13:39:05;;;;;;;7.23;5.50;;;;;;;;;;5070553;28;20505;-55
2022/04/13 13:41:31;;;;;;;6.40;4.80;;;;;;;;;;5071889;28;20452;-55
2022/04/13 13:43:57;;;;;;;8.40;5.20;;;;;;;;;;5071981;28;20405;-55
2022/04/13 13:46:25;;;;;;;5.83;5.03;;;;;;;;;;5072054;28;20401;-57
2022/04/13 13:48:51;;;;;;;12.63;5.63;;;;;;;;;;5071766;28;20481;-55
2022/04/13 13:51:17;;;;;;;6.20;5.70;;;;;;;;;;5071705;28;20429;-54
2022/04/13 13:53:48;;;;;;;10.33;5.70;;;;;;;;;;5071393;28;20915;-55
2022/04/13 13:56:14;;;;;;;8.37;5.70;;;;;;;;;;5071985;28;20543;-56
2022/04/13 13:58:40;;;;;;;5.30;4.80;;;;;;;;;;5075427;28;20421;-57
2022/04/13 14:01:06;;;;;;;7.27;5.67;;;;;;;;;;5091821;28;20404;-55
2022/04/13 14:03:32;;;;;;;6.20;5.50;;;;;;;;;;5090417;28;20528;-53
2022/04/13 14:05:58;;;;;;;5.63;5.13;;;;;;;;;;5091009;28;20160;-54
2022/04/13 14:08:24;;;;;;;6.47;5.30;;;;;;;;;;5091901;28;20202;-54
2022/04/13 14:10:51;;;;;;;8.23;5.10;;;;;;;;;;5091875;28;20402;-54
2022/04/13 14:13:17;;;;;;;8.33;5.80;;;;;;;;;;5091694;28;20414;-55
2022/04/13 14:15:43;;;;;;;7.80;5.43;;;;;;;;;;5091972;28;20401;-57
2022/04/13 14:18:12;;;;;;;6.73;5.83;;;;;;;;;;5091679;28;20413;-55
2022/04/13 14:20:38;;;;;;;9.33;5.60;;;;;;;;;;5091491;28;20959;-54
2022/04/13 14:23:05;;;;;;;8.83;6.17;;;;;;;;;;5091584;28;20512;-63
2022/04/13 14:25:31;;;;;;;12.83;5.20;;;;;;;;;;5087826;28;20754;-57
2022/04/13 14:27:59;;;;;;;6.33;5.57;;;;;;;;;;5071412;28;20410;-53
2022/04/13 14:30:25;;;;;;;6.17;4.90;;;;;;;;;;5071359;28;20414;-55
2022/04/13 14:32:53;;;;;;;5.37;4.90;;;;;;;;;;5071376;28;20409;-56